Time;durP1;ratioP1;P1;durP2;ratioP2;P2;SDS_P1;SDS_P2;PMS_P1;PMS_P2;Temp;Humidity;BMP_temperature;BMP_pressure;BME280_temperature;BME280_humidity;BME280_pressure;Samples;Min_cycle;Max_cycle;Signal;HPM_P1;HPM_P2
2021/12/15 00:01:48;;;;;;;0.57;0.52;;;;;20.50;100143.00;;;;4892282;29;20551;-78
2021/12/15 00:04:19;;;;;;;0.00;0.00;;;;;20.50;100154.00;;;;4891753;29;20500;-77
2021/12/15 00:06:50;;;;;;;0.20;0.15;;;;;20.50;100151.00;;;;4891088;29;20405;-76
2021/12/15 00:09:19;;;;;;;0.10;0.10;;;;;20.50;100140.00;;;;4891093;29;20067;-73
2021/12/15 00:11:49;;;;;;;0.20;0.10;;;;;20.50;100137.00;;;;4891240;29;20300;-75
2021/12/15 00:14:20;;;;;;;0.10;0.10;;;;;20.50;100134.00;;;;4891479;29;20096;-74
2021/12/15 00:16:51;;;;;;;0.32;0.32;;;;;20.50;100141.00;;;;4894470;29;20068;-75
2021/12/15 00:19:20;;;;;;;0.00;0.00;;;;;20.50;100143.00;;;;4894937;29;20436;-75
2021/12/15 00:21:50;;;;;;;0.55;0.55;;;;;20.60;100138.00;;;;4894042;29;20054;-73
2021/12/15 00:24:20;;;;;;;0.00;0.00;;;;;20.60;100131.00;;;;4894458;29;20482;-73
2021/12/15 00:26:49;;;;;;;0.00;0.00;;;;;20.60;100124.00;;;;4894035;29;20049;-74
2021/12/15 00:29:19;;;;;;;0.75;0.43;;;;;20.70;100129.00;;;;4892704;29;20521;-73
2021/12/15 00:31:50;;;;;;;0.38;0.10;;;;;20.70;100107.00;;;;4893064;29;20067;-73
2021/12/15 00:34:21;;;;;;;0.30;0.30;;;;;20.70;100106.00;;;;4894138;29;20128;-73
2021/12/15 00:36:50;;;;;;;0.05;0.05;;;;;20.70;100138.00;;;;4895030;29;20053;-72
2021/12/15 00:39:22;;;;;;;0.03;0.03;;;;;20.80;100120.00;;;;4894580;29;20048;-73
2021/12/15 00:41:52;;;;;;;3.25;1.00;;;;;20.70;100121.00;;;;4895360;29;20067;-73
2021/12/15 00:44:22;;;;;;;0.30;0.15;;;;;20.70;100131.00;;;;4894592;29;20045;-73
2021/12/15 00:46:52;;;;;;;0.05;0.05;;;;;20.80;100129.00;;;;4893757;29;20501;-73
2021/12/15 00:49:23;;;;;;;0.55;0.40;;;;;20.80;100127.00;;;;4892647;29;20603;-74
2021/12/15 00:51:53;;;;;;;0.00;0.00;;;;;20.80;100130.00;;;;4893684;29;20468;-75
2021/12/15 00:54:23;;;;;;;0.20;0.20;;;;;20.80;100136.00;;;;4888186;29;20059;-74
2021/12/15 00:56:55;;;;;;;1.20;0.20;;;;;20.80;100142.00;;;;4891937;29;20408;-74
2021/12/15 00:59:25;;;;;;;0.00;0.00;;;;;20.90;100136.00;;;;4895620;29;20052;-75
2021/12/15 01:01:55;;;;;;;0.10;0.10;;;;;20.90;100131.00;;;;4894402;29;20048;-74
2021/12/15 01:04:26;;;;;;;0.20;0.17;;;;;20.90;100136.00;;;;4892277;29;20056;-74
2021/12/15 01:06:58;;;;;;;0.65;0.60;;;;;20.90;100142.00;;;;4890974;29;20048;-76
2021/12/15 01:09:32;;;;;;;0.10;0.00;;;;;20.90;100152.00;;;;4891540;29;20056;-76
2021/12/15 01:20:27;;;;;;;0.00;0.00;;;;;20.90;100156.00;;;;4893553;29;20040;-77
2021/12/15 01:23:04;;;;;;;0.00;0.00;;;;;20.90;100146.00;;;;4894307;29;20101;-76
2021/12/15 01:25:46;;;;;;;0.03;0.03;;;;;20.90;100137.00;;;;4894330;29;20103;-77
2021/12/15 01:28:20;;;;;;;2.67;1.98;;;;;20.90;100155.00;;;;4891304;29;20045;-75
2021/12/15 01:30:52;;;;;;;0.00;0.00;;;;;20.90;100164.00;;;;4893033;29;20052;-77
2021/12/15 01:33:24;;;;;;;0.05;0.05;;;;;20.90;100141.00;;;;4894113;29;20056;-74
2021/12/15 01:35:56;;;;;;;0.10;0.10;;;;;20.90;100138.00;;;;4891387;29;20512;-74
2021/12/15 01:38:32;;;;;;;0.40;0.35;;;;;20.90;100137.00;;;;4893706;29;20428;-77
2021/12/15 01:41:03;;;;;;;2.35;1.92;;;;;20.90;100140.00;;;;4892162;29;20112;-78
2021/12/15 01:43:51;;;;;;;0.13;0.13;;;;;20.90;100125.00;;;;4893720;29;20084;-76
2021/12/15 01:49:36;;;;;;;0.00;0.00;;;;;20.90;100138.00;;;;4893252;29;20092;-74
2021/12/15 01:52:29;;;;;;;0.00;0.00;;;;;20.90;100122.00;;;;4893575;29;20555;-77
2021/12/15 01:55:05;;;;;;;0.08;0.08;;;;;20.80;100117.00;;;;4893202;29;20494;-74
2021/12/15 01:57:36;;;;;;;0.00;0.00;;;;;20.80;100110.00;;;;4893510;29;20049;-74
2021/12/15 02:00:18;;;;;;;0.00;0.00;;;;;20.80;100119.00;;;;4892349;29;20575;-77
2021/12/15 02:02:50;;;;;;;0.40;0.17;;;;;20.70;100124.00;;;;4892065;29;20468;-77
2021/12/15 02:05:20;;;;;;;0.08;0.08;;;;;20.70;100110.00;;;;4893405;29;20702;-77
2021/12/15 02:07:49;;;;;;;1.55;0.30;;;;;20.70;100116.00;;;;4892808;29;20490;-75
2021/12/15 02:10:24;;;;;;;0.32;0.32;;;;;20.70;100108.00;;;;4892548;29;20063;-78
2021/12/15 02:13:00;;;;;;;0.50;0.28;;;;;20.70;100140.00;;;;4893549;29;20130;-77
2021/12/15 02:15:34;;;;;;;0.00;0.00;;;;;20.70;100121.00;;;;4893151;29;20083;-74
2021/12/15 02:18:06;;;;;;;0.75;0.30;;;;;20.60;100122.00;;;;4891684;29;20058;-77
2021/12/15 02:20:44;;;;;;;0.10;0.10;;;;;20.70;100116.00;;;;4892399;29;20076;-78
2021/12/15 02:23:20;;;;;;;0.00;0.00;;;;;20.60;100126.00;;;;4907937;29;20171;-75
2021/12/15 02:25:51;;;;;;;0.03;0.03;;;;;20.60;100106.00;;;;4907663;29;20079;-78
2021/12/15 02:28:22;;;;;;;0.20;0.10;;;;;20.60;100114.00;;;;4891703;29;20057;-77
2021/12/15 02:30:59;;;;;;;2.47;1.35;;;;;20.70;100108.00;;;;4890953;29;20061;-74
2021/12/15 02:33:59;;;;;;;0.08;0.08;;;;;20.70;100095.00;;;;4907334;29;20059;-76
2021/12/15 02:39:17;;;;;;;0.00;0.00;;;;;20.70;100093.00;;;;4892232;29;20527;-76
2021/12/15 02:41:47;;;;;;;0.95;0.47;;;;;20.70;100115.00;;;;4892825;29;20052;-76
2021/12/15 02:44:20;;;;;;;4.70;0.67;;;;;20.70;100096.00;;;;4891580;29;20119;-74
2021/12/15 02:46:52;;;;;;;0.00;0.00;;;;;20.70;100115.00;;;;4892800;29;20496;-77
2021/12/15 02:49:28;;;;;;;0.30;0.30;;;;;20.70;100097.00;;;;4892299;29;20539;-74
2021/12/15 02:52:00;;;;;;;1.85;1.05;;;;;20.70;100098.00;;;;4891820;29;20052;-76
2021/12/15 02:54:29;;;;;;;0.00;0.00;;;;;20.70;100115.00;;;;4891151;29;20125;-80
2021/12/15 02:57:05;;;;;;;0.00;0.00;;;;;20.70;100110.00;;;;4892519;29;20052;-75
2021/12/15 02:59:52;;;;;;;0.00;0.00;;;;;20.70;100103.00;;;;4892404;29;20059;-78
2021/12/15 03:05:28;;;;;;;0.82;0.22;;;;;20.60;100084.00;;;;4877239;29;20128;-74
2021/12/15 03:08:18;;;;;;;0.00;0.00;;;;;20.60;100074.00;;;;4892044;29;20060;-78
2021/12/15 03:16:27;;;;;;;1.13;0.68;;;;;20.70;100073.00;;;;4906290;29;20049;-74
2021/12/15 03:18:58;;;;;;;0.00;0.00;;;;;20.60;100067.00;;;;4894743;29;20056;-74
2021/12/15 03:21:28;;;;;;;0.00;0.00;;;;;20.60;100067.00;;;;4891959;29;20688;-76
2021/12/15 03:24:13;;;;;;;0.00;0.00;;;;;20.50;100062.00;;;;4891524;29;20048;-76
2021/12/15 03:26:52;;;;;;;0.00;0.00;;;;;20.50;100073.00;;;;4891852;29;20080;-75
2021/12/15 03:35:18;;;;;;;3.63;0.75;;;;;20.50;100084.00;;;;4891242;29;20044;-77
2021/12/15 03:37:53;;;;;;;0.10;0.10;;;;;20.50;100081.00;;;;4891760;29;20551;-77
2021/12/15 03:40:36;;;;;;;6.82;1.10;;;;;20.50;100078.00;;;;4891759;29;20123;-74
2021/12/15 03:43:11;;;;;;;1.65;0.10;;;;;20.50;100063.00;;;;4891575;29;20069;-76
2021/12/15 03:45:49;;;;;;;0.00;0.00;;;;;20.50;100035.00;;;;4891363;29;20487;-76
2021/12/15 03:48:23;;;;;;;0.00;0.00;;;;;20.50;100048.00;;;;4891711;29;20080;-74
2021/12/15 03:50:56;;;;;;;0.20;0.20;;;;;20.50;100051.00;;;;4890691;29;20070;-76
2021/12/15 03:53:27;;;;;;;0.00;0.00;;;;;20.40;100073.00;;;;4891172;29;20044;-75
2021/12/15 03:55:57;;;;;;;0.05;0.00;;;;;20.50;100076.00;;;;4891700;29;20104;-76
2021/12/15 03:58:27;;;;;;;0.00;0.00;;;;;20.50;100042.00;;;;4890638;29;20175;-75
2021/12/15 04:01:04;;;;;;;1.00;0.40;;;;;20.50;100059.00;;;;4891151;29;20441;-78
2021/12/15 04:03:38;;;;;;;0.10;0.10;;;;;20.50;100061.00;;;;4891419;29;20045;-74
2021/12/15 04:06:11;;;;;;;3.63;1.10;;;;;20.50;100064.00;;;;4891338;29;20445;-76
2021/12/15 04:08:41;;;;;;;15.07;0.90;;;;;20.50;100050.00;;;;4890823;29;21154;-74
2021/12/15 04:11:14;;;;;;;4.13;1.42;;;;;20.50;100060.00;;;;4891115;29;20057;-75
2021/12/15 04:13:47;;;;;;;0.25;0.25;;;;;20.60;100050.00;;;;4890439;29;20052;-77
2021/12/15 04:19:04;;;;;;;0.10;0.10;;;;;20.50;100066.00;;;;4891360;29;20045;-77
2021/12/15 04:21:35;;;;;;;0.00;0.00;;;;;20.50;100063.00;;;;4890651;29;20119;-77
2021/12/15 04:24:05;;;;;;;0.00;0.00;;;;;20.50;100064.00;;;;4891583;29;20049;-77
2021/12/15 04:26:35;;;;;;;4.47;0.60;;;;;20.60;100080.00;;;;4891277;29;20101;-76
2021/12/15 04:29:05;;;;;;;7.38;1.85;;;;;20.60;100054.00;;;;4890366;29;20049;-74
2021/12/15 04:31:38;;;;;;;0.00;0.00;;;;;20.60;100082.00;;;;4890066;29;20104;-76
2021/12/15 04:34:10;;;;;;;0.00;0.00;;;;;20.60;100068.00;;;;4891798;29;20549;-74
2021/12/15 04:36:44;;;;;;;0.00;0.00;;;;;20.60;100084.00;;;;4890808;29;20052;-75
2021/12/15 04:39:17;;;;;;;0.03;0.03;;;;;20.60;100082.00;;;;4890450;29;20068;-76
2021/12/15 04:41:50;;;;;;;0.00;0.00;;;;;20.60;100080.00;;;;4889669;29;20045;-75
2021/12/15 04:44:23;;;;;;;0.38;0.38;;;;;20.70;100086.00;;;;4890950;29;20044;-75
2021/12/15 04:47:08;;;;;;;0.00;0.00;;;;;20.70;100093.00;;;;4890389;29;20057;-74
2021/12/15 04:49:43;;;;;;;0.00;0.00;;;;;20.60;100081.00;;;;4891088;29;20418;-73
2021/12/15 04:52:14;;;;;;;0.00;0.00;;;;;20.60;100084.00;;;;4891472;29;20056;-75
2021/12/15 04:54:44;;;;;;;0.00;0.00;;;;;20.60;100087.00;;;;4890973;29;20144;-75
2021/12/15 04:57:17;;;;;;;0.00;0.00;;;;;20.60;100099.00;;;;4890791;29;20049;-74
2021/12/15 04:59:49;;;;;;;0.03;0.00;;;;;20.70;100066.00;;;;4890606;29;20131;-77
2021/12/15 05:02:19;;;;;;;0.00;0.00;;;;;20.70;100086.00;;;;4892479;29;20123;-76
2021/12/15 05:04:51;;;;;;;2.20;0.35;;;;;20.70;100106.00;;;;4894089;29;20044;-73
2021/12/15 05:07:20;;;;;;;0.00;0.00;;;;;20.70;100110.00;;;;4892969;29;20093;-74
2021/12/15 05:09:51;;;;;;;0.03;0.03;;;;;20.70;100100.00;;;;4894009;29;20123;-74
2021/12/15 05:12:21;;;;;;;0.00;0.00;;;;;20.70;100089.00;;;;4894159;29;20044;-74
2021/12/15 05:14:51;;;;;;;0.00;0.00;;;;;20.70;100087.00;;;;4892616;29;20064;-75
2021/12/15 05:17:20;;;;;;;0.00;0.00;;;;;20.70;100073.00;;;;4894495;29;20117;-75
2021/12/15 05:19:51;;;;;;;0.00;0.00;;;;;20.70;100086.00;;;;4893324;29;20108;-75
2021/12/15 05:22:20;;;;;;;0.00;0.00;;;;;20.70;100099.00;;;;4894037;29;20171;-75
2021/12/15 05:24:50;;;;;;;0.00;0.00;;;;;20.70;100108.00;;;;4894243;29;20104;-77
2021/12/15 05:27:19;;;;;;;0.00;0.00;;;;;20.70;100069.00;;;;4893780;29;20134;-76
2021/12/15 05:29:50;;;;;;;0.00;0.00;;;;;20.70;100087.00;;;;4892874;29;20281;-72
2021/12/15 05:32:22;;;;;;;0.00;0.00;;;;;20.70;100092.00;;;;4893320;29;20045;-72
2021/12/15 05:34:55;;;;;;;0.00;0.00;;;;;20.70;100102.00;;;;4892552;29;20143;-72
2021/12/15 05:37:27;;;;;;;0.00;0.00;;;;;20.70;100105.00;;;;4894112;29;20050;-74
2021/12/15 05:39:57;;;;;;;0.00;0.00;;;;;20.60;100098.00;;;;4893722;29;20044;-73
2021/12/15 05:42:27;;;;;;;0.00;0.00;;;;;20.60;100081.00;;;;4894094;29;20053;-74
2021/12/15 05:44:57;;;;;;;0.00;0.00;;;;;20.60;100085.00;;;;4894130;29;20044;-75
2021/12/15 05:47:27;;;;;;;0.00;0.00;;;;;20.60;100089.00;;;;4893333;29;20056;-72
2021/12/15 05:49:56;;;;;;;0.00;0.00;;;;;20.60;100098.00;;;;4893324;29;20052;-76
2021/12/15 05:52:30;;;;;;;0.00;0.00;;;;;20.60;100098.00;;;;4893184;29;20076;-75
2021/12/15 05:55:00;;;;;;;0.00;0.00;;;;;20.60;100086.00;;;;4893479;29;20127;-72
2021/12/15 05:57:29;;;;;;;0.00;0.00;;;;;20.60;100068.00;;;;4893169;29;20048;-76
2021/12/15 05:59:59;;;;;;;0.00;0.00;;;;;20.60;100085.00;;;;4893396;29;20560;-76
2021/12/15 06:02:38;;;;;;;0.00;0.00;;;;;20.60;100087.00;;;;4893406;29;20478;-75
2021/12/15 06:05:10;;;;;;;0.00;0.00;;;;;20.60;100070.00;;;;4893295;29;20425;-73
2021/12/15 06:07:39;;;;;;;0.00;0.00;;;;;20.60;100084.00;;;;4893103;29;20625;-74
2021/12/15 06:10:12;;;;;;;0.00;0.00;;;;;20.70;100064.00;;;;4892061;29;20104;-74
2021/12/15 06:12:43;;;;;;;0.00;0.00;;;;;20.70;100057.00;;;;4891714;29;20092;-72
2021/12/15 06:15:14;;;;;;;0.00;0.00;;;;;20.70;100076.00;;;;4892839;29;20052;-73
2021/12/15 06:17:43;;;;;;;0.00;0.00;;;;;20.70;100059.00;;;;4892861;29;20094;-75
2021/12/15 06:20:13;;;;;;;0.00;0.00;;;;;20.70;100078.00;;;;4890806;29;20089;-73
2021/12/15 06:22:47;;;;;;;0.00;0.00;;;;;20.70;100058.00;;;;4892894;29;20049;-76
2021/12/15 06:25:16;;;;;;;2.35;0.65;;;;;20.60;100075.00;;;;4893262;29;20049;-75
2021/12/15 06:27:46;;;;;;;0.00;0.00;;;;;20.60;100056.00;;;;4891491;29;20127;-74
2021/12/15 06:30:15;;;;;;;0.00;0.00;;;;;20.60;100073.00;;;;4892069;29;20060;-75
2021/12/15 06:32:45;;;;;;;0.00;0.00;;;;;20.60;100049.00;;;;4891943;29;20052;-73
2021/12/15 06:35:14;;;;;;;0.00;0.00;;;;;20.60;100078.00;;;;4892456;29;20506;-77
2021/12/15 06:37:44;;;;;;;0.00;0.00;;;;;20.60;100057.00;;;;4892386;29;20056;-72
2021/12/15 06:40:14;;;;;;;0.00;0.00;;;;;20.70;100052.00;;;;4890328;29;20096;-72
2021/12/15 06:42:44;;;;;;;0.00;0.00;;;;;20.60;100046.00;;;;4892311;29;20485;-73
2021/12/15 06:45:19;;;;;;;0.00;0.00;;;;;20.60;100053.00;;;;4892156;29;20472;-74
2021/12/15 06:58:42;;;;;;;0.00;0.00;;;;;20.40;100050.00;;;;4892089;29;20045;-74
2021/12/15 07:01:13;;;;;;;0.00;0.00;;;;;20.30;100028.00;;;;4891780;29;20044;-75
2021/12/15 07:03:43;;;;;;;0.00;0.00;;;;;20.30;100037.00;;;;4892788;29;20052;-73
2021/12/15 07:06:13;;;;;;;0.00;0.00;;;;;20.30;100050.00;;;;4892001;29;20052;-75
2021/12/15 07:08:43;;;;;;;0.00;0.00;;;;;20.20;100034.00;;;;4896505;29;20056;-72
2021/12/15 07:11:12;;;;;;;0.00;0.00;;;;;20.20;100054.00;;;;4905033;29;20080;-71
2021/12/15 07:13:41;;;;;;;0.00;0.00;;;;;20.20;100066.00;;;;4900828;29;20100;-75
2021/12/15 07:16:12;;;;;;;0.10;0.00;;;;;20.10;100048.00;;;;4891925;29;20481;-76
2021/12/15 07:19:32;;;;;;;0.00;0.00;;;;;20.10;100080.00;;;;4891922;29;20048;-76
2021/12/15 07:21:38;;;;;;;0.05;0.05;;;;;20.10;100078.00;;;;4888703;29;20091;-75
2021/12/15 07:24:09;;;;;;;0.00;0.00;;;;;20.20;100055.00;;;;4891403;29;20044;-75
2021/12/15 07:26:38;;;;;;;0.00;0.00;;;;;20.20;100062.00;;;;4890848;29;20112;-74
2021/12/15 07:29:08;;;;;;;0.00;0.00;;;;;20.30;100065.00;;;;4891456;29;20044;-74
2021/12/15 07:31:37;;;;;;;0.00;0.00;;;;;20.30;100046.00;;;;4891604;29;20060;-76
2021/12/15 07:34:07;;;;;;;0.00;0.00;;;;;20.30;100053.00;;;;4891001;29;20060;-74
2021/12/15 07:36:36;;;;;;;0.00;0.00;;;;;20.30;100068.00;;;;4891263;29;20053;-72
2021/12/15 07:39:10;;;;;;;0.00;0.00;;;;;20.30;100080.00;;;;4891654;29;20105;-74
2021/12/15 07:41:50;;;;;;;0.00;0.00;;;;;20.40;100090.00;;;;4891192;29;20048;-76
2021/12/15 07:44:22;;;;;;;0.00;0.00;;;;;20.40;100076.00;;;;4891911;29;20049;-72
2021/12/15 07:46:53;;;;;;;0.00;0.00;;;;;20.40;100102.00;;;;4892182;29;20507;-73
2021/12/15 07:49:25;;;;;;;0.00;0.00;;;;;20.40;100081.00;;;;4891759;29;20814;-73
2021/12/15 07:52:04;;;;;;;0.00;0.00;;;;;20.40;100083.00;;;;4891033;29;20059;-77
2021/12/15 07:54:36;;;;;;;0.00;0.00;;;;;20.40;100074.00;;;;4890872;29;20056;-72
2021/12/15 07:57:17;;;;;;;0.00;0.00;;;;;20.40;100099.00;;;;4891979;29;20127;-74
2021/12/15 07:59:47;;;;;;;0.00;0.00;;;;;20.50;100074.00;;;;4891546;29;20110;-75
2021/12/15 08:02:17;;;;;;;0.00;0.00;;;;;20.50;100078.00;;;;4891193;29;20040;-75
2021/12/15 08:04:46;;;;;;;0.00;0.00;;;;;20.50;100088.00;;;;4891902;29;20059;-74
2021/12/15 08:07:17;;;;;;;0.00;0.00;;;;;20.50;100084.00;;;;4890619;29;20053;-75
2021/12/15 08:09:49;;;;;;;;;;;;;20.50;100097.00;;;;4892272;29;20478;-74
2021/12/15 08:12:19;;;;;;;0.00;0.00;;;;;20.50;100103.00;;;;4891457;29;20326;-74
2021/12/15 08:14:48;;;;;;;0.00;0.00;;;;;20.50;100085.00;;;;4890925;29;20051;-75
2021/12/15 08:17:17;;;;;;;0.00;0.00;;;;;20.50;100090.00;;;;4891653;29;20104;-72
2021/12/15 08:19:47;;;;;;;0.00;0.00;;;;;20.50;100090.00;;;;4891080;29;20567;-72
2021/12/15 08:22:17;;;;;;;0.00;0.00;;;;;20.50;100104.00;;;;4891486;29;20076;-72
2021/12/15 08:24:46;;;;;;;0.00;0.00;;;;;20.50;100104.00;;;;4891357;29;20049;-74
2021/12/15 08:27:20;;;;;;;0.00;0.00;;;;;20.50;100106.00;;;;4889603;29;20523;-76
2021/12/15 08:29:49;;;;;;;0.00;0.00;;;;;20.50;100086.00;;;;4891555;29;20080;-75
2021/12/15 08:32:19;;;;;;;0.00;0.00;;;;;20.50;100106.00;;;;4889223;29;20120;-75
2021/12/15 08:34:48;;;;;;;0.00;0.00;;;;;20.60;100109.00;;;;4890745;29;20112;-73
2021/12/15 08:37:17;;;;;;;0.00;0.00;;;;;20.60;100094.00;;;;4893153;29;20048;-75
2021/12/15 08:39:47;;;;;;;0.00;0.00;;;;;20.70;100112.00;;;;4892458;29;20053;-74
2021/12/15 08:42:17;;;;;;;0.00;0.00;;;;;20.70;100103.00;;;;4894876;29;20052;-74
2021/12/15 08:44:47;;;;;;;0.00;0.00;;;;;20.70;100091.00;;;;4894342;29;20489;-74
2021/12/15 08:47:17;;;;;;;0.00;0.00;;;;;20.80;100096.00;;;;4894294;29;20100;-72
2021/12/15 08:49:47;;;;;;;0.00;0.00;;;;;20.80;100103.00;;;;4894607;29;20519;-73
2021/12/15 08:52:17;;;;;;;0.00;0.00;;;;;20.80;100090.00;;;;4893869;29;20076;-73
2021/12/15 08:54:46;;;;;;;0.00;0.00;;;;;20.90;100100.00;;;;4894651;29;20045;-76
2021/12/15 08:57:16;;;;;;;0.00;0.00;;;;;21.00;100104.00;;;;4894144;29;20049;-73
2021/12/15 08:59:46;;;;;;;0.00;0.00;;;;;21.00;100113.00;;;;4894900;29;20516;-75
2021/12/15 09:02:15;;;;;;;0.00;0.00;;;;;21.00;100106.00;;;;4894351;29;20116;-75
2021/12/15 09:04:45;;;;;;;0.00;0.00;;;;;21.00;100111.00;;;;4894212;29;20139;-73
2021/12/15 09:07:16;;;;;;;0.00;0.00;;;;;21.10;100118.00;;;;4893513;29;20049;-74
2021/12/15 09:09:46;;;;;;;0.00;0.00;;;;;21.20;100126.00;;;;4894267;29;20068;-74
2021/12/15 09:12:19;;;;;;;0.00;0.00;;;;;21.30;100124.00;;;;4894707;29;20044;-74
2021/12/15 09:14:48;;;;;;;0.00;0.00;;;;;21.30;100107.00;;;;4892932;29;20139;-76
2021/12/15 09:17:18;;;;;;;0.00;0.00;;;;;21.40;100119.00;;;;4894480;29;20393;-74
2021/12/15 09:19:47;;;;;;;0.10;0.10;;;;;21.50;100124.00;;;;4894470;29;20056;-76
2021/12/15 09:22:16;;;;;;;0.00;0.00;;;;;21.60;100118.00;;;;4894684;29;20112;-73
2021/12/15 09:24:46;;;;;;;0.00;0.00;;;;;21.70;100120.00;;;;4892601;29;20044;-75
2021/12/15 09:27:15;;;;;;;0.00;0.00;;;;;21.70;100133.00;;;;4893962;29;20056;-74
2021/12/15 09:29:45;;;;;;;0.10;0.08;;;;;21.80;100139.00;;;;4892778;29;20060;-72
2021/12/15 09:32:14;;;;;;;0.00;0.00;;;;;21.80;100146.00;;;;4893676;29;20123;-73
2021/12/15 09:34:43;;;;;;;0.00;0.00;;;;;21.80;100141.00;;;;4893752;29;20068;-73
2021/12/15 09:37:13;;;;;;;0.00;0.00;;;;;21.80;100137.00;;;;4893223;29;20116;-73
2021/12/15 09:39:42;;;;;;;0.00;0.00;;;;;21.90;100150.00;;;;4893339;29;20065;-73
2021/12/15 09:42:25;;;;;;;0.00;0.00;;;;;22.00;100131.00;;;;4892670;29;20040;-74
2021/12/15 09:45:17;;;;;;;0.08;0.08;;;;;22.00;100142.00;;;;4893720;29;20044;-74
2021/12/15 10:02:00;;;;;;;0.00;0.00;;;;;22.10;100184.00;;;;4893231;29;20048;-73
2021/12/15 10:04:34;;;;;;;0.00;0.00;;;;;22.00;100189.00;;;;4892822;29;20078;-74
2021/12/15 10:17:23;;;;;;;0.00;0.00;;;;;22.00;100187.00;;;;4892244;29;20079;-73
2021/12/15 10:18:29;;;;;;;0.00;0.00;;;;;22.20;100191.00;;;;4892705;29;20085;-74
2021/12/15 10:20:59;;;;;;;0.00;0.00;;;;;22.20;100178.00;;;;4893013;29;20040;-73
2021/12/15 10:23:38;;;;;;;0.00;0.00;;;;;22.20;100197.00;;;;4892747;29;20521;-76
2021/12/15 10:26:10;;;;;;;0.20;0.20;;;;;22.30;100178.00;;;;4892395;29;20167;-74
2021/12/15 10:28:42;;;;;;;0.15;0.15;;;;;22.40;100189.00;;;;4891380;29;20048;-73
2021/12/15 10:31:16;;;;;;;0.00;0.00;;;;;22.50;100175.00;;;;4891655;29;20063;-73
2021/12/15 10:33:55;;;;;;;0.00;0.00;;;;;22.60;100195.00;;;;4892667;29;20044;-75
2021/12/15 10:36:28;;;;;;;0.10;0.10;;;;;22.70;100182.00;;;;4892142;29;20147;-74
2021/12/15 10:39:01;;;;;;;0.10;0.10;;;;;22.80;100194.00;;;;4892312;29;20513;-74
2021/12/15 10:41:35;;;;;;;0.00;0.00;;;;;22.80;100190.00;;;;4892824;29;20045;-74
2021/12/15 10:44:08;;;;;;;0.00;0.00;;;;;23.00;100204.00;;;;4892426;29;20119;-75
2021/12/15 10:46:42;;;;;;;0.00;0.00;;;;;23.10;100194.00;;;;4890870;29;20052;-74
2021/12/15 10:49:15;;;;;;;0.00;0.00;;;;;23.20;100182.00;;;;4892649;29;20079;-73
2021/12/15 10:51:53;;;;;;;0.32;0.22;;;;;23.40;100167.00;;;;4892560;29;20133;-73
2021/12/15 10:54:36;;;;;;;0.00;0.00;;;;;23.60;100162.00;;;;4892513;29;20052;-74
2021/12/15 10:57:16;;;;;;;0.00;0.00;;;;;23.90;100164.00;;;;4891549;29;20407;-73
2021/12/15 10:59:51;;;;;;;0.00;0.00;;;;;24.10;100170.00;;;;4892561;29;20056;-74
2021/12/15 11:02:39;;;;;;;0.00;0.00;;;;;24.10;100194.00;;;;4892336;29;20049;-74
2021/12/15 11:05:11;;;;;;;0.00;0.00;;;;;24.00;100186.00;;;;4892006;29;20045;-75
2021/12/15 11:07:47;;;;;;;0.00;0.00;;;;;23.90;100177.00;;;;4892398;29;20119;-74
2021/12/15 11:10:25;;;;;;;0.00;0.00;;;;;23.60;100200.00;;;;4892262;29;20052;-74
2021/12/15 11:12:59;;;;;;;0.00;0.00;;;;;23.40;100180.00;;;;4892064;29;20033;-73
2021/12/15 11:15:41;;;;;;;0.13;0.13;;;;;23.40;100206.00;;;;4892230;29;20052;-76
2021/12/15 11:18:19;;;;;;;0.00;0.00;;;;;23.40;100207.00;;;;4891480;29;20123;-74
2021/12/15 11:20:59;;;;;;;0.00;0.00;;;;;23.40;100206.00;;;;4891759;29;20064;-75
2021/12/15 11:23:31;;;;;;;0.00;0.00;;;;;23.40;100208.00;;;;4891718;29;20055;-74
2021/12/15 11:26:03;;;;;;;0.00;0.00;;;;;23.50;100215.00;;;;4891756;29;20041;-73
2021/12/15 11:28:46;;;;;;;0.00;0.00;;;;;23.50;100206.00;;;;4891682;29;20044;-73
2021/12/15 11:31:19;;;;;;;0.00;0.00;;;;;23.50;100201.00;;;;4891920;29;20074;-74
2021/12/15 11:33:52;;;;;;;0.00;0.00;;;;;23.60;100188.00;;;;4891964;29;20051;-74
2021/12/15 11:36:31;;;;;;;0.00;0.00;;;;;23.70;100176.00;;;;4891765;29;20127;-74
2021/12/15 11:39:04;;;;;;;0.00;0.00;;;;;24.00;100177.00;;;;4891721;29;20052;-74
2021/12/15 11:41:49;;;;;;;0.00;0.00;;;;;24.20;100160.00;;;;4892124;29;20659;-74
2021/12/15 11:44:25;;;;;;;0.28;0.08;;;;;24.30;100156.00;;;;4891845;29;20116;-74
2021/12/15 11:46:58;;;;;;;0.00;0.00;;;;;24.30;100170.00;;;;4892302;29;20083;-74
2021/12/15 11:49:40;;;;;;;0.10;0.10;;;;;24.50;100118.00;;;;4891383;29;20128;-75
2021/12/15 11:52:14;;;;;;;0.00;0.00;;;;;24.70;100182.00;;;;4891799;29;20606;-74
2021/12/15 11:54:49;;;;;;;0.00;0.00;;;;;24.60;100173.00;;;;4891431;29;20544;-75
2021/12/15 11:57:25;;;;;;;0.47;0.45;;;;;24.60;100161.00;;;;4891660;29;20041;-74
2021/12/15 12:00:05;;;;;;;0.00;0.00;;;;;24.80;100155.00;;;;4891867;29;20683;-74
2021/12/15 12:02:47;;;;;;;0.00;0.00;;;;;24.80;100181.00;;;;4892157;29;20076;-74
2021/12/15 12:05:25;;;;;;;0.10;0.10;;;;;24.70;100177.00;;;;4892182;29;20055;-75
2021/12/15 12:07:59;;;;;;;0.00;0.00;;;;;24.70;100161.00;;;;4890978;29;20508;-75
2021/12/15 12:10:33;;;;;;;0.10;0.00;;;;;24.70;100176.00;;;;4891643;29;20044;-74
2021/12/15 12:13:11;;;;;;;0.65;0.13;;;;;24.70;100159.00;;;;4894891;29;20040;-73
2021/12/15 12:15:43;;;;;;;0.08;0.08;;;;;24.80;100174.00;;;;4895185;29;20144;-75
2021/12/15 12:18:25;;;;;;;0.63;0.52;;;;;24.80;100159.00;;;;4895549;29;20044;-75
2021/12/15 12:20:58;;;;;;;0.00;0.00;;;;;24.90;100154.00;;;;4895656;29;20044;-74
2021/12/15 12:23:33;;;;;;;0.10;0.10;;;;;25.00;100165.00;;;;4895746;29;20064;-74
2021/12/15 12:26:06;;;;;;;0.00;0.00;;;;;25.10;100157.00;;;;4895043;29;20048;-73
2021/12/15 12:28:43;;;;;;;0.00;0.00;;;;;25.20;100165.00;;;;4895370;29;20580;-75
2021/12/15 12:31:19;;;;;;;0.00;0.00;;;;;25.20;100154.00;;;;4895096;29;20079;-74
2021/12/15 12:33:49;;;;;;;0.00;0.00;;;;;25.40;100147.00;;;;4895238;29;20051;-75
2021/12/15 12:36:25;;;;;;;0.00;0.00;;;;;25.60;100153.00;;;;4895377;29;20496;-74
2021/12/15 12:39:06;;;;;;;0.55;0.25;;;;;25.60;100154.00;;;;4894712;29;20055;-74
2021/12/15 12:41:46;;;;;;;0.30;0.20;;;;;25.60;100130.00;;;;4894710;29;20044;-73
2021/12/15 12:44:22;;;;;;;1.17;0.47;;;;;25.80;100123.00;;;;4894433;29;20535;-74
2021/12/15 12:47:02;;;;;;;0.10;0.10;;;;;26.20;100140.00;;;;4895042;29;20048;-73
2021/12/15 13:00:56;;;;;;;0.00;0.00;;;;;27.00;100110.00;;;;4894088;29;20052;-74
2021/12/15 13:03:35;;;;;;;0.00;0.00;;;;;27.10;100125.00;;;;4894993;29;20053;-74
2021/12/15 13:06:07;;;;;;;0.00;0.00;;;;;27.50;100115.00;;;;4895176;29;20551;-75
2021/12/15 13:08:56;;;;;;;0.10;0.00;;;;;27.80;100105.00;;;;4894250;29;20061;-74
2021/12/15 13:11:36;;;;;;;0.40;0.30;;;;;27.90;100109.00;;;;4894380;29;20059;-74
2021/12/15 13:14:12;;;;;;;0.00;0.00;;;;;28.10;100110.00;;;;4895109;29;20052;-75
2021/12/15 13:17:07;;;;;;;0.00;0.00;;;;;28.40;100104.00;;;;4894138;29;20072;-74
2021/12/15 13:19:44;;;;;;;0.00;0.00;;;;;28.50;100087.00;;;;4894499;29;20840;-74
2021/12/15 13:22:47;;;;;;;0.10;0.00;;;;;28.40;100094.00;;;;4894403;29;20100;-73
2021/12/15 13:28:45;;;;;;;0.05;0.05;;;;;28.60;100116.00;;;;4894352;29;20056;-74
2021/12/15 13:31:20;;;;;;;0.00;0.00;;;;;28.40;100110.00;;;;4893728;29;20507;-75
2021/12/15 13:33:54;;;;;;;0.00;0.00;;;;;28.80;100096.00;;;;4894453;29;20052;-74
2021/12/15 13:36:30;;;;;;;0.10;0.10;;;;;29.00;100095.00;;;;4893835;29;20092;-75
2021/12/15 13:39:17;;;;;;;0.00;0.00;;;;;29.30;100063.00;;;;4894745;29;20432;-73
2021/12/15 13:42:08;;;;;;;0.30;0.15;;;;;29.50;100084.00;;;;4894217;29;20108;-75
2021/12/15 13:44:49;;;;;;;0.40;0.30;;;;;29.80;100081.00;;;;4893975;29;20051;-74
2021/12/15 13:47:21;;;;;;;0.17;0.15;;;;;29.70;100067.00;;;;4893897;29;20049;-74
2021/12/15 13:49:54;;;;;;;0.15;0.15;;;;;29.80;100082.00;;;;4893380;29;20048;-73
2021/12/15 13:52:39;;;;;;;0.30;0.20;;;;;29.80;100058.00;;;;4893252;29;20511;-77
2021/12/15 13:55:14;;;;;;;0.05;0.05;;;;;29.70;100088.00;;;;4893636;29;20052;-76
2021/12/15 13:57:52;;;;;;;0.00;0.00;;;;;29.60;100094.00;;;;4893602;29;20040;-74
2021/12/15 14:00:46;;;;;;;0.43;0.43;;;;;29.60;100088.00;;;;4893332;29;20420;-74